createdAt,value
2022-09-22T00:01:34.830Z,10.60
2022-09-22T00:04:08.091Z,10.58
2022-09-22T00:06:47.732Z,10.56
2022-09-22T00:09:18.804Z,10.56
2022-09-22T00:12:21.604Z,10.53
2022-09-22T00:14:54.230Z,10.51
2022-09-22T00:17:23.412Z,10.48
2022-09-22T00:19:52.470Z,10.47
2022-09-22T00:22:20.218Z,10.46
2022-09-22T00:24:48.531Z,10.44
2022-09-22T00:27:16.625Z,10.42
2022-09-22T00:29:45.023Z,10.40
2022-09-22T00:32:13.827Z,10.38
2022-09-22T00:34:41.616Z,10.36
2022-09-22T00:37:09.387Z,10.34
2022-09-22T00:39:37.308Z,10.32
2022-09-22T00:42:05.246Z,10.28
2022-09-22T00:44:41.523Z,10.25
2022-09-22T00:47:18.763Z,10.23
2022-09-22T00:49:52.772Z,10.19
2022-09-22T00:52:26.024Z,10.14
2022-09-22T00:54:57.980Z,10.09
2022-09-22T00:57:29.937Z,10.05
2022-09-22T00:59:58.362Z,10.01
2022-09-22T01:02:26.106Z,9.97
2022-09-22T01:04:54.098Z,9.93
2022-09-22T01:07:25.348Z,9.89
2022-09-22T01:09:53.517Z,9.86
2022-09-22T01:12:23.434Z,9.82
2022-09-22T01:15:22.679Z,9.77
2022-09-22T01:18:30.573Z,9.72
2022-09-22T01:21:27.671Z,9.68
2022-09-22T01:24:14.638Z,9.65
2022-09-22T01:27:34.347Z,9.60
2022-09-22T01:30:16.441Z,9.55
2022-09-22T01:33:13.137Z,9.51
2022-09-22T01:35:56.316Z,9.47
2022-09-22T01:38:30.344Z,9.44
2022-09-22T01:41:08.331Z,9.42
2022-09-22T01:43:49.385Z,9.38
2022-09-22T01:46:43.124Z,9.36
2022-09-22T01:49:15.682Z,9.34
2022-09-22T01:51:52.049Z,9.31
2022-09-22T01:54:26.962Z,9.27
2022-09-22T01:57:10.400Z,9.21
2022-09-22T01:59:40.996Z,9.16
2022-09-22T02:02:22.711Z,9.12
2022-09-22T02:04:57.093Z,9.08
2022-09-22T02:07:33.935Z,9.02
2022-09-22T02:10:09.004Z,8.96
2022-09-22T02:12:37.751Z,8.91
2022-09-22T02:15:30.508Z,8.86
2022-09-22T02:18:03.279Z,8.81
2022-09-22T02:20:31.072Z,8.76
2022-09-22T02:22:59.627Z,8.74
2022-09-22T02:25:28.854Z,8.72
2022-09-22T02:27:58.325Z,8.70
2022-09-22T02:30:27.997Z,8.67
2022-09-22T02:32:56.985Z,8.65
2022-09-22T02:35:30.250Z,8.63
2022-09-22T02:38:10.335Z,8.61
2022-09-22T02:41:00.567Z,8.58
2022-09-22T02:43:38.607Z,8.55
2022-09-22T02:46:16.414Z,8.52
2022-09-22T02:48:49.516Z,8.49
2022-09-22T02:51:18.816Z,8.47
2022-09-22T02:53:46.673Z,8.45
2022-09-22T02:56:14.504Z,8.43
2022-09-22T02:58:42.617Z,8.41
2022-09-22T03:01:11.263Z,8.39
2022-09-22T03:03:39.077Z,8.38
2022-09-22T03:06:06.952Z,8.35
2022-09-22T03:08:34.858Z,8.33
2022-09-22T03:11:03.530Z,8.30
2022-09-22T03:13:31.341Z,8.28
2022-09-22T03:15:59.146Z,8.27
2022-09-22T03:18:26.925Z,8.25
2022-09-22T03:20:55.558Z,8.25
2022-09-22T03:23:23.289Z,8.25
2022-09-22T03:25:51.038Z,8.23
2022-09-22T03:28:19.430Z,8.22
2022-09-22T03:30:47.774Z,8.21
2022-09-22T03:33:15.490Z,8.19
2022-09-22T03:35:43.807Z,8.17
2022-09-22T03:38:11.584Z,8.15
2022-09-22T03:40:39.662Z,8.14
2022-09-22T03:43:07.591Z,8.11
2022-09-22T03:45:35.982Z,8.09
2022-09-22T03:48:03.961Z,8.07
2022-09-22T03:50:34.651Z,8.06
2022-09-22T03:53:04.598Z,8.05
2022-09-22T03:55:32.489Z,8.03
2022-09-22T03:58:00.413Z,8.01
2022-09-22T04:00:28.726Z,7.99
2022-09-22T04:02:58.283Z,7.97
2022-09-22T04:05:26.039Z,7.96
2022-09-22T04:07:53.955Z,7.95
2022-09-22T04:10:22.519Z,7.94
2022-09-22T04:12:51.658Z,7.92
2022-09-22T04:15:25.001Z,7.91
2022-09-22T04:17:54.326Z,7.89
2022-09-22T04:20:22.219Z,7.87
2022-09-22T04:22:50.365Z,7.85
2022-09-22T04:25:18.314Z,7.84
2022-09-22T04:27:47.591Z,7.81
2022-09-22T04:30:15.839Z,7.79
2022-09-22T04:32:44.637Z,7.78
2022-09-22T04:35:12.445Z,7.77
2022-09-22T04:37:40.198Z,7.76
2022-09-22T04:40:08.789Z,7.75
2022-09-22T04:42:36.586Z,7.75
2022-09-22T04:45:33.967Z,7.75
2022-09-22T04:48:05.650Z,7.76
2022-09-22T04:50:33.426Z,7.78
2022-09-22T04:53:08.080Z,7.82
2022-09-22T04:55:36.239Z,7.89
2022-09-22T04:58:04.853Z,7.96
2022-09-22T05:00:32.732Z,8.04
2022-09-22T05:03:02.235Z,8.14
2022-09-22T05:05:30.127Z,8.25
2022-09-22T05:08:01.372Z,8.36
2022-09-22T05:10:32.400Z,8.49
2022-09-22T05:13:00.218Z,8.64
2022-09-22T05:15:28.051Z,8.78
2022-09-22T05:17:55.853Z,8.87
2022-09-22T05:20:24.187Z,8.88
2022-09-22T05:22:53.302Z,8.89
2022-09-22T05:25:21.473Z,8.87
2022-09-22T05:27:52.015Z,8.85
2022-09-22T05:30:23.504Z,8.87
2022-09-22T05:32:51.612Z,8.89
2022-09-22T05:35:25.502Z,8.91
2022-09-22T05:37:54.144Z,8.96
2022-09-22T05:40:26.326Z,9.03
2022-09-22T05:42:55.752Z,9.22
2022-09-22T05:45:24.160Z,9.50
2022-09-22T05:47:53.112Z,9.76
2022-09-22T05:50:23.923Z,10.00
2022-09-22T05:53:01.363Z,10.22
2022-09-22T05:55:29.233Z,10.43
2022-09-22T05:57:58.556Z,10.52
2022-09-22T06:00:28.383Z,10.62
2022-09-22T06:02:57.550Z,10.77
2022-09-22T06:05:26.247Z,11.01
2022-09-22T06:08:03.750Z,11.25
2022-09-22T06:10:33.532Z,11.36
2022-09-22T06:13:05.620Z,11.42
2022-09-22T06:15:36.426Z,11.51
2022-09-22T06:18:14.661Z,11.55
2022-09-22T06:20:43.244Z,11.69
2022-09-22T06:23:13.678Z,11.69
2022-09-22T06:25:43.597Z,11.64
2022-09-22T06:28:14.990Z,11.63
2022-09-22T06:30:42.929Z,11.67
2022-09-22T06:33:11.810Z,11.75
2022-09-22T06:35:43.390Z,11.85
2022-09-22T06:38:15.165Z,11.81
2022-09-22T06:40:44.587Z,11.73
2022-09-22T06:43:24.104Z,11.58
2022-09-22T06:45:53.473Z,11.31
2022-09-22T06:48:24.102Z,11.19
2022-09-22T06:50:54.519Z,11.14
2022-09-22T06:53:27.307Z,11.16
2022-09-22T06:55:55.908Z,11.22
2022-09-22T06:58:25.262Z,11.26
2022-09-22T07:00:54.036Z,11.21
2022-09-22T07:03:24.498Z,11.17
2022-09-22T07:05:57.636Z,11.16
2022-09-22T07:08:26.195Z,11.21
2022-09-22T07:10:59.607Z,11.17
2022-09-22T07:13:48.477Z,11.11
2022-09-22T07:16:18.447Z,11.17
2022-09-22T07:18:48.939Z,11.39
2022-09-22T07:21:30.171Z,11.61
2022-09-22T07:23:58.380Z,11.80
2022-09-22T07:26:32.779Z,11.88
2022-09-22T07:29:04.134Z,11.89
2022-09-22T07:31:34.951Z,11.89
2022-09-22T07:34:03.614Z,11.92
2022-09-22T07:36:43.890Z,11.99
2022-09-22T07:39:17.199Z,12.03
2022-09-22T07:41:48.310Z,12.02
2022-09-22T07:44:35.648Z,12.04
2022-09-22T07:47:05.536Z,12.17
2022-09-22T07:49:33.546Z,12.39
2022-09-22T07:52:01.519Z,12.57
2022-09-22T07:54:29.361Z,12.75
2022-09-22T07:56:59.069Z,12.75
2022-09-22T07:59:27.707Z,12.70
2022-09-22T08:02:21.313Z,12.59
2022-09-22T08:04:49.608Z,12.57
2022-09-22T08:07:17.746Z,12.71
2022-09-22T08:09:45.479Z,12.95
2022-09-22T08:12:15.162Z,13.17
2022-09-22T08:14:45.355Z,13.26
2022-09-22T08:17:14.951Z,13.26
2022-09-22T08:19:42.892Z,13.32
2022-09-22T08:22:11.015Z,13.38
2022-09-22T08:24:38.766Z,13.34
2022-09-22T08:27:06.514Z,13.23
2022-09-22T08:29:36.683Z,13.15
2022-09-22T08:32:04.730Z,13.09
2022-09-22T08:34:32.659Z,13.21
2022-09-22T08:37:00.923Z,13.29
2022-09-22T08:39:28.867Z,13.25
2022-09-22T08:42:23.264Z,13.34
2022-09-22T08:44:52.691Z,13.52
2022-09-22T08:47:50.609Z,13.67
2022-09-22T08:50:45.567Z,13.81
2022-09-22T08:53:23.537Z,13.63
2022-09-22T08:56:05.656Z,13.45
2022-09-22T08:59:09.075Z,13.42
2022-09-22T09:01:43.195Z,13.45
2022-09-22T09:04:58.178Z,13.61
2022-09-22T09:07:58.984Z,13.83
2022-09-22T09:10:46.329Z,14.12
2022-09-22T09:13:40.782Z,14.25
2022-09-22T09:16:21.006Z,14.35
2022-09-22T09:19:00.994Z,14.50
2022-09-22T09:21:33.910Z,14.59
2022-09-22T09:27:07.011Z,14.52
2022-09-22T09:29:44.699Z,14.46
2022-09-22T09:32:22.756Z,14.46
2022-09-22T09:34:55.735Z,14.44
2022-09-22T09:37:25.629Z,14.37
2022-09-22T09:40:02.949Z,14.34
2022-09-22T09:42:37.961Z,14.27
2022-09-22T09:45:07.170Z,14.27
2022-09-22T09:48:03.197Z,14.51
2022-09-22T09:50:32.477Z,14.87
2022-09-22T09:53:00.928Z,14.85
2022-09-22T09:55:29.680Z,14.82
2022-09-22T09:58:32.815Z,14.93
2022-09-22T10:01:07.289Z,14.92
2022-09-22T10:03:42.488Z,14.81
2022-09-22T10:06:12.005Z,14.78
2022-09-22T10:08:49.866Z,15.00
2022-09-22T10:11:31.596Z,15.28
2022-09-22T10:14:00.863Z,15.32
2022-09-22T10:16:31.082Z,15.22
2022-09-22T10:19:21.302Z,15.02
2022-09-22T10:21:49.980Z,14.87
2022-09-22T10:24:32.080Z,14.79
2022-09-22T10:27:03.970Z,14.80
2022-09-22T10:29:35.698Z,14.98
2022-09-22T10:32:15.312Z,15.21
2022-09-22T10:34:51.779Z,15.38
2022-09-22T10:37:26.487Z,15.53
2022-09-22T10:40:00.591Z,15.64
2022-09-22T10:42:45.663Z,15.74
2022-09-22T10:45:20.433Z,15.70
2022-09-22T10:50:57.960Z,15.50
2022-09-22T10:53:58.156Z,15.37
2022-09-22T10:56:46.880Z,15.22
2022-09-22T10:59:47.961Z,15.15
2022-09-22T11:02:48.212Z,15.26
2022-09-22T11:06:14.009Z,15.44
2022-09-22T11:09:20.798Z,15.47
2022-09-22T11:12:18.075Z,15.52
2022-09-22T11:15:18.393Z,15.62
2022-09-22T11:17:58.781Z,15.62
2022-09-22T11:20:34.568Z,15.56
2022-09-22T11:23:25.355Z,15.53
2022-09-22T11:26:15.645Z,15.58
2022-09-22T11:29:09.148Z,15.44
2022-09-22T11:31:49.075Z,15.09
2022-09-22T11:34:47.044Z,14.83
2022-09-22T11:37:40.427Z,14.65
2022-09-22T11:40:27.649Z,14.56
2022-09-22T11:43:09.499Z,14.78
2022-09-22T11:45:56.212Z,15.04
2022-09-22T11:48:59.367Z,15.26
2022-09-22T11:51:46.199Z,15.34
2022-09-22T11:54:33.277Z,15.35
2022-09-22T11:57:09.888Z,15.25
2022-09-22T12:03:03.552Z,15.05
2022-09-22T12:05:50.039Z,14.96
2022-09-22T12:08:23.739Z,15.00
2022-09-22T12:10:52.992Z,15.16
2022-09-22T12:13:28.369Z,15.31
2022-09-22T12:16:07.269Z,15.49
2022-09-22T12:19:01.443Z,15.64
2022-09-22T12:21:32.224Z,15.83
2022-09-22T12:24:04.167Z,15.91
2022-09-22T12:26:34.173Z,15.96
2022-09-22T12:29:25.410Z,16.08
2022-09-22T12:31:58.820Z,16.22
2022-09-22T12:34:34.575Z,16.26
2022-09-22T12:37:14.862Z,16.18
2022-09-22T12:39:48.751Z,16.03
2022-09-22T12:42:39.555Z,15.82
2022-09-22T12:45:25.810Z,15.59
2022-09-22T12:47:57.753Z,15.35
2022-09-22T12:50:33.234Z,15.20
2022-09-22T12:53:04.671Z,15.22
2022-09-22T12:55:40.628Z,15.34
2022-09-22T12:58:20.446Z,15.49
2022-09-22T13:00:53.919Z,15.70
2022-09-22T13:03:26.484Z,15.78
2022-09-22T13:06:01.372Z,15.91
2022-09-22T13:08:35.830Z,16.03
2022-09-22T13:11:06.289Z,16.10
2022-09-22T13:13:39.558Z,16.16
2022-09-22T13:16:50.026Z,16.27
2022-09-22T13:19:17.904Z,16.42
2022-09-22T13:21:47.707Z,16.44
2022-09-22T13:24:23.666Z,16.42
2022-09-22T13:27:04.844Z,16.43
2022-09-22T13:29:32.953Z,16.43
2022-09-22T13:32:18.542Z,16.44
2022-09-22T13:34:48.524Z,16.57
2022-09-22T13:37:23.974Z,16.75
2022-09-22T13:39:55.931Z,16.82
2022-09-22T13:42:32.046Z,16.70
2022-09-22T13:45:07.950Z,16.60
2022-09-22T13:47:36.924Z,16.53
2022-09-22T13:50:13.015Z,16.47
2022-09-22T13:52:41.619Z,16.51
2022-09-22T13:55:48.019Z,16.62
2022-09-22T13:58:35.976Z,16.74
2022-09-22T14:01:13.879Z,16.82
2022-09-22T14:03:43.856Z,16.88
2022-09-22T14:06:24.565Z,16.92
2022-09-22T14:08:53.763Z,16.98
2022-09-22T14:11:24.787Z,17.02
2022-09-22T14:14:00.224Z,16.98
2022-09-22T14:16:46.388Z,16.88
2022-09-22T14:19:17.362Z,16.74
2022-09-22T14:21:51.315Z,16.65
2022-09-22T14:24:19.994Z,16.60
2022-09-22T14:27:04.011Z,16.40
2022-09-22T14:29:34.247Z,16.21
2022-09-22T14:32:24.909Z,16.13
2022-09-22T14:35:00.334Z,16.18
2022-09-22T14:37:40.891Z,16.12
2022-09-22T14:40:21.192Z,15.92
2022-09-22T14:43:03.771Z,15.85
2022-09-22T14:45:32.979Z,15.70
2022-09-22T14:48:13.958Z,15.67
2022-09-22T14:50:47.878Z,15.73
2022-09-22T14:53:23.095Z,15.68
2022-09-22T14:55:56.063Z,15.62
2022-09-22T14:58:28.101Z,15.63
2022-09-22T15:01:26.063Z,15.65
2022-09-22T15:04:04.937Z,15.59
2022-09-22T15:06:37.279Z,15.51
2022-09-22T15:09:13.420Z,15.44
2022-09-22T15:12:02.502Z,15.36
2022-09-22T15:14:57.011Z,15.36
2022-09-22T15:18:02.477Z,15.34
2022-09-22T15:20:42.895Z,15.38
2022-09-22T15:23:27.618Z,15.39
2022-09-22T15:25:56.308Z,15.38
2022-09-22T15:28:27.209Z,15.37
2022-09-22T15:30:58.759Z,15.33
2022-09-22T15:33:27.106Z,15.32
2022-09-22T15:36:01.788Z,15.35
2022-09-22T15:38:32.879Z,15.31
2022-09-22T15:41:02.033Z,15.25
2022-09-22T15:43:33.690Z,15.29
2022-09-22T15:46:04.995Z,15.35
2022-09-22T15:48:37.704Z,15.35
2022-09-22T15:51:12.973Z,15.33
2022-09-22T15:53:41.836Z,15.29
2022-09-22T15:56:18.617Z,15.22
2022-09-22T15:58:49.813Z,15.13
2022-09-22T16:01:18.370Z,15.10
2022-09-22T16:03:46.292Z,15.07
2022-09-22T16:06:18.233Z,15.05
2022-09-22T16:08:48.304Z,14.98
2022-09-22T16:11:23.407Z,14.87
2022-09-22T16:13:51.603Z,14.77
2022-09-22T16:16:19.766Z,14.67
2022-09-22T16:18:47.676Z,14.59
2022-09-22T16:21:20.048Z,14.49
2022-09-22T16:23:49.393Z,14.38
2022-09-22T16:26:17.643Z,14.29
2022-09-22T16:28:45.794Z,14.22
2022-09-22T16:31:14.492Z,14.13
2022-09-22T16:33:44.092Z,14.05
2022-09-22T16:36:13.409Z,14.01
2022-09-22T16:38:41.876Z,13.95
2022-09-22T16:41:26.064Z,13.88
2022-09-22T16:43:55.877Z,13.78
2022-09-22T16:46:28.700Z,13.69
2022-09-22T16:49:00.761Z,13.58
2022-09-22T16:51:31.203Z,13.48
2022-09-22T16:54:03.226Z,13.38
2022-09-22T16:56:33.625Z,13.28
2022-09-22T16:59:02.986Z,13.17
2022-09-22T17:01:38.311Z,13.07
2022-09-22T17:04:10.612Z,12.97
2022-09-22T17:06:41.124Z,12.87
2022-09-22T17:09:11.000Z,12.76
2022-09-22T17:11:50.093Z,12.63
2022-09-22T17:14:25.604Z,12.52
2022-09-22T17:16:56.794Z,12.43
2022-09-22T17:19:27.991Z,12.35
2022-09-22T17:21:56.775Z,12.27
2022-09-22T17:24:27.054Z,12.19
2022-09-22T17:26:57.363Z,12.11
2022-09-22T17:29:30.045Z,12.01
2022-09-22T17:32:02.910Z,11.92
2022-09-22T17:34:37.046Z,11.84
2022-09-22T17:37:05.714Z,11.74
2022-09-22T17:39:34.028Z,11.65
2022-09-22T17:42:03.037Z,11.59
2022-09-22T17:44:37.421Z,11.54
2022-09-22T17:47:26.156Z,11.48
2022-09-22T17:50:12.975Z,11.41
2022-09-22T17:53:00.094Z,11.34
2022-09-22T17:55:28.593Z,11.27
2022-09-22T17:57:57.662Z,11.21
2022-09-22T18:00:26.462Z,11.14
2022-09-22T18:02:55.328Z,11.08
2022-09-22T18:05:27.021Z,11.02
2022-09-22T18:07:58.099Z,10.96
2022-09-22T18:10:31.275Z,10.89
2022-09-22T18:13:01.848Z,10.83
2022-09-22T18:15:31.485Z,10.78
2022-09-22T18:18:00.702Z,10.72
2022-09-22T18:20:28.839Z,10.65
2022-09-22T18:22:58.172Z,10.60
2022-09-22T18:25:28.522Z,10.55
2022-09-22T18:27:57.215Z,10.49
2022-09-22T18:30:27.155Z,10.42
2022-09-22T18:32:56.417Z,10.37
2022-09-22T18:35:28.057Z,10.31
2022-09-22T18:37:56.780Z,10.25
2022-09-22T18:40:24.838Z,10.20
2022-09-22T18:42:54.779Z,10.15
2022-09-22T18:45:23.509Z,10.09
2022-09-22T18:47:52.378Z,10.04
2022-09-22T18:50:20.789Z,9.99
2022-09-22T18:52:56.969Z,9.94
2022-09-22T18:55:24.909Z,9.89
2022-09-22T18:57:54.303Z,9.84
2022-09-22T19:00:22.286Z,9.79
2022-09-22T19:02:52.564Z,9.74
2022-09-22T19:05:21.891Z,9.68
2022-09-22T19:07:51.199Z,9.63
2022-09-22T19:10:23.703Z,9.58
2022-09-22T19:12:52.137Z,9.54
2022-09-22T19:15:23.830Z,9.49
2022-09-22T19:17:53.700Z,9.45
2022-09-22T19:20:30.119Z,9.41
2022-09-22T19:23:11.698Z,9.38
2022-09-22T19:25:46.461Z,9.34
2022-09-22T19:28:15.936Z,9.29
2022-09-22T19:30:46.747Z,9.26
2022-09-22T19:33:15.542Z,9.24
2022-09-22T19:35:44.330Z,9.21
2022-09-22T19:38:13.207Z,9.16
2022-09-22T19:40:41.789Z,9.10
2022-09-22T19:43:11.267Z,9.05
2022-09-22T19:45:42.572Z,9.01
2022-09-22T19:48:12.474Z,8.96
2022-09-22T19:50:42.344Z,8.90
2022-09-22T19:53:10.906Z,8.85
2022-09-22T19:55:40.134Z,8.80
2022-09-22T19:58:08.505Z,8.75
2022-09-22T20:00:39.090Z,8.71
2022-09-22T20:03:08.315Z,8.68
2022-09-22T20:05:40.481Z,8.63
2022-09-22T20:08:21.881Z,8.59
2022-09-22T20:11:16.314Z,8.55
2022-09-22T20:14:04.406Z,8.51
2022-09-22T20:16:34.557Z,8.47
2022-09-22T20:19:03.374Z,8.44
2022-09-22T20:21:35.560Z,8.41
2022-09-22T20:24:06.871Z,8.39
2022-09-22T20:26:37.124Z,8.38
2022-09-22T20:29:09.920Z,8.36
2022-09-22T20:31:39.932Z,8.36
2022-09-22T20:34:12.982Z,8.35
2022-09-22T20:36:43.402Z,8.33
2022-09-22T20:39:15.628Z,8.33
2022-09-22T20:41:44.760Z,8.32
2022-09-22T20:44:15.042Z,8.32
2022-09-22T20:46:44.617Z,8.31
2022-09-22T20:49:13.861Z,8.30
2022-09-22T20:51:43.869Z,8.29
2022-09-22T20:54:16.223Z,8.28
2022-09-22T20:56:45.446Z,8.26
2022-09-22T20:59:16.015Z,8.24
2022-09-22T21:01:44.187Z,8.21
2022-09-22T21:04:16.129Z,8.19
2022-09-22T21:06:47.010Z,8.16
2022-09-22T21:09:33.734Z,8.13
2022-09-22T21:12:03.095Z,8.12
2022-09-22T21:14:33.793Z,8.11
2022-09-22T21:17:08.827Z,8.09
2022-09-22T21:19:38.843Z,8.07
2022-09-22T21:22:08.168Z,8.05
2022-09-22T21:24:44.932Z,8.02
2022-09-22T21:27:14.592Z,7.98
2022-09-22T21:29:43.380Z,7.92
2022-09-22T21:32:11.971Z,7.86
2022-09-22T21:34:41.993Z,7.82
2022-09-22T21:37:10.176Z,7.79
2022-09-22T21:39:38.141Z,7.75
2022-09-22T21:42:06.261Z,7.72
2022-09-22T21:44:34.447Z,7.67
2022-09-22T21:47:02.497Z,7.64
2022-09-22T21:49:30.541Z,7.61
2022-09-22T21:52:01.273Z,7.57
2022-09-22T21:54:31.783Z,7.54
2022-09-22T21:57:02.818Z,7.51
2022-09-22T21:59:31.362Z,7.49
2022-09-22T22:01:59.826Z,7.47
2022-09-22T22:04:28.050Z,7.44
2022-09-22T22:06:56.166Z,7.41
2022-09-22T22:09:26.148Z,7.38
2022-09-22T22:11:56.989Z,7.35
2022-09-22T22:14:32.755Z,7.33
2022-09-22T22:17:02.486Z,7.30
2022-09-22T22:19:30.424Z,7.27
2022-09-22T22:21:58.270Z,7.25
2022-09-22T22:24:29.564Z,7.24
2022-09-22T22:27:02.488Z,7.22
2022-09-22T22:29:35.125Z,7.22
2022-09-22T22:32:09.377Z,7.21
2022-09-22T22:35:07.574Z,7.20
2022-09-22T22:37:35.494Z,7.19
2022-09-22T22:40:04.202Z,7.18
2022-09-22T22:42:32.644Z,7.17
2022-09-22T22:45:00.914Z,7.18
2022-09-22T22:47:28.867Z,7.17
2022-09-22T22:49:57.044Z,7.16
2022-09-22T22:52:24.869Z,7.15
2022-09-22T22:54:53.010Z,7.14
2022-09-22T22:57:21.316Z,7.12
2022-09-22T22:59:49.125Z,7.11
2022-09-22T23:02:17.239Z,7.09
2022-09-22T23:04:44.938Z,7.07
2022-09-22T23:07:12.717Z,7.05
2022-09-22T23:09:41.696Z,7.03
2022-09-22T23:12:10.722Z,7.02
2022-09-22T23:14:38.419Z,7.02
2022-09-22T23:17:06.532Z,7.01
2022-09-22T23:19:34.594Z,7.00
2022-09-22T23:22:02.991Z,7.00
2022-09-22T23:24:33.932Z,6.99
2022-09-22T23:27:02.753Z,6.98
2022-09-22T23:29:30.862Z,6.98
2022-09-22T23:31:58.662Z,6.98
2022-09-22T23:34:27.602Z,6.98
2022-09-22T23:36:56.358Z,6.99
2022-09-22T23:39:24.278Z,6.99
2022-09-22T23:41:52.445Z,6.99
2022-09-22T23:44:20.751Z,6.97
2022-09-22T23:46:50.406Z,6.96
2022-09-22T23:49:18.477Z,6.96
2022-09-22T23:51:46.323Z,6.95
2022-09-22T23:54:14.335Z,6.95
2022-09-22T23:56:43.529Z,6.96
2022-09-22T23:59:11.310Z,6.97
